SCVM

Details ICAO SCVM
Name Vina Del Mar
Region Chile
Timezone America/Santiago (UTC-3.0)
Plans Departing 22
Arriving 32
Stats Elevation 461 ft / 141 m (AMSL)
Location -32.949611° -71.478583°
Runways 1
Magnetic Variation 2.185° E
Sunrise 2017-12-14 09:32:57 UTC / 2017-12-14 06:32:57 Local
Sunset 2017-12-14 23:51:13 UTC / 2017-12-14 20:51:13 Local
Advertisement - Login to hide

Runways

ID Width Length Bearing (true) Bearing (mag) Surface Threshold Offset Overrun Length
05 98 ft / 30 m 5,759 ft / 1,755 m 52.21° 50.02° Asphalt 0 ft / 0 m 85 ft / 26 m
23 98 ft / 30 m 5,759 ft / 1,755 m 232.20° 230.01° Asphalt 0 ft / 0 m 85 ft / 26 m

Approach Navaids

Runway Type Ident Frequency Range Bearing (true) Bearing (mag) Slope Elevation
05 Localiser IVDM 110.70 MHz 18 nm / 33 km 52.20° 50.02° - 456 ft / 139 m (AMSL)
05 Glidescope IVDM 110.70 MHz 10 nm / 19 km 52.20° 50.02° 3.20° 456 ft / 139 m (AMSL)
05 DME IVDM 110.70 MHz 18 nm / 33 km - - - 423 ft / 129 m (AMSL)

Map

Weather


0- 5 10 15 20 25 30 35+ Temperature / ° C

Clouds and Precipitation
Forecast for 2017-12-15 00:00 UTC. Updated 2 hours ago

Ground ~20,000 ft ~40,000 ft Winds

METAR

SCVM 142200Z 21007KT CAVOK 26/14 Q1011

TAF

Not found

Frequencies

Ground 121.85 MHz GND
Approach 128.10 MHz SANTIAGO APP
Tower 118.40 MHz TWR
Warning: Do not use this data for real-world aviation or navigation. No guarantee of current accuracy is given.